Map

Track Data

SID SEASON NUMBER BASIN SUBBASIN NAME ISO_TIME NATURE LAT LON WMO_WIND WMO_PRES WMO_AGENCY TRACK_TYPE DIST2LAND LANDFALL IFLAG USA_AGENCY USA_ATCF_ID USA_LAT USA_LON USA_RECORD USA_STATUS USA_WIND USA_PRES USA_SSHS USA_R34_NE USA_R34_SE USA_R34_SW USA_R34_NW USA_R50_NE USA_R50_SE USA_R50_SW USA_R50_NW USA_R64_NE USA_R64_SE USA_R64_SW USA_R64_NW USA_POCI USA_ROCI USA_RMW USA_EYE TOKYO_LAT TOKYO_LON TOKYO_GRADE TOKYO_WIND TOKYO_PRES TOKYO_R50_DIR TOKYO_R50_LONG TOKYO_R50_SHORT TOKYO_R30_DIR TOKYO_R30_LONG TOKYO_R30_SHORT TOKYO_LAND CMA_LAT CMA_LON CMA_CAT CMA_WIND CMA_PRES HKO_LAT HKO_LON HKO_CAT HKO_WIND HKO_PRES NEWDELHI_LAT NEWDELHI_LON NEWDELHI_GRADE NEWDELHI_WIND NEWDELHI_PRES NEWDELHI_CI NEWDELHI_DP NEWDELHI_POCI REUNION_LAT REUNION_LON REUNION_TYPE REUNION_WIND REUNION_PRES REUNION_TNUM REUNION_CI REUNION_RMW REUNION_R34_NE REUNION_R34_SE REUNION_R34_SW REUNION_R34_NW REUNION_R50_NE REUNION_R50_SE REUNION_R50_SW REUNION_R50_NW REUNION_R64_NE REUNION_R64_SE REUNION_R64_SW REUNION_R64_NW BOM_LAT BOM_LON BOM_TYPE BOM_WIND BOM_PRES BOM_TNUM BOM_CI BOM_RMW BOM_R34_NE BOM_R34_SE BOM_R34_SW BOM_R34_NW BOM_R50_NE BOM_R50_SE BOM_R50_SW BOM_R50_NW BOM_R64_NE BOM_R64_SE BOM_R64_SW BOM_R64_NW BOM_ROCI BOM_POCI BOM_EYE BOM_POS_METHOD BOM_PRES_METHOD NADI_LAT NADI_LON NADI_CAT NADI_WIND NADI_PRES WELLINGTON_LAT WELLINGTON_LON WELLINGTON_WIND WELLINGTON_PRES DS824_LAT DS824_LON DS824_STAGE DS824_WIND DS824_PRES TD9636_LAT TD9636_LON TD9636_STAGE TD9636_WIND TD9636_PRES TD9635_LAT TD9635_LON TD9635_WIND TD9635_PRES TD9635_ROCI NEUMANN_LAT NEUMANN_LON NEUMANN_CLASS NEUMANN_WIND NEUMANN_PRES MLC_LAT MLC_LON MLC_CLASS MLC_WIND MLC_PRES USA_GUST BOM_GUST BOM_GUST_PER REUNION_GUST REUNION_GUST_PER USA_SEAHGT USA_SEARAD_NE USA_SEARAD_SE USA_SEARAD_SW USA_SEARAD_NW STORM_SPEED STORM_DIR
1961306N23301 1961 115 NA NA JENNY 1961-11-02 00:00:00 TS 22.5000 -59.0000 30 hurdat_atl main 826 826 O_____________ hurdat_atl AL101961 22.5000 -59.0000 TD 30 -1 14 44
1961306N23301 1961 115 NA NA JENNY 1961-11-02 03:00:00 TS 22.9980 -58.4734 main 899 899 P_____________ AL101961 22.9980 -58.4734 TD 30 -1 14 43
1961306N23301 1961 115 NA NA JENNY 1961-11-02 06:00:00 TS 23.5000 -58.0000 30 hurdat_atl main 973 973 O_____________ hurdat_atl AL101961 23.5000 -58.0000 TD 30 -1 13 38
1961306N23301 1961 115 NA NA JENNY 1961-11-02 09:00:00 TS 24.0073 -57.6196 main 1038 1038 P_____________ AL101961 24.0073 -57.6196 TD 30 -1 12 33
1961306N23301 1961 115 NA NA JENNY 1961-11-02 12:00:00 TS 24.5000 -57.3000 30 hurdat_atl main 1096 1096 O_____________ hurdat_atl AL101961 24.5000 -57.3000 TD 30 -1 11 31
1961306N23301 1961 115 NA NA JENNY 1961-11-02 15:00:00 TS 24.9650 -56.9774 main 1154 1154 P_____________ AL101961 24.9650 -56.9774 TD 30 -1 11 31
1961306N23301 1961 115 NA NA JENNY 1961-11-02 18:00:00 TS 25.4000 -56.7000 30 hurdat_atl main 1205 1205 O_____________ hurdat_atl AL101961 25.4000 -56.7000 TD 30 -1 10 26
1961306N23301 1961 115 NA NA JENNY 1961-11-02 21:00:00 TS 25.8298 -56.5071 main 1249 1249 P_____________ AL101961 25.8298 -56.5071 TD 30 -1 9 24
1961306N23301 1961 115 NA NA JENNY 1961-11-03 00:00:00 TS 26.2000 -56.3000 30 hurdat_atl main 1293 1293 O_____________ hurdat_atl AL101961 26.2000 -56.3000 TD 30 -1 8 34
1961306N23301 1961 115 NA NA JENNY 1961-11-03 03:00:00 TS 26.4948 -56.0024 main 1337 1337 P_____________ AL101961 26.4948 -56.0024 TD 30 -1 8 51
1961306N23301 1961 115 NA NA JENNY 1961-11-03 06:00:00 TS 26.7000 -55.6000 30 hurdat_atl main 1382 1382 O_____________ hurdat_atl AL101961 26.7000 -55.6000 TD 30 -1 9 67
1961306N23301 1961 115 NA NA JENNY 1961-11-03 09:00:00 TS 26.8296 -55.1173 main 1427 1427 P_____________ AL101961 26.8296 -55.1173 TD 30 -1 10 78
1961306N23301 1961 115 NA NA JENNY 1961-11-03 12:00:00 TS 26.9000 -54.5000 30 hurdat_atl main 1481 1481 O_____________ hurdat_atl AL101961 26.9000 -54.5000 TD 30 -1 12 84
1961306N23301 1961 115 NA NA JENNY 1961-11-03 15:00:00 TS 26.9647 -53.7600 main 1543 1543 P_____________ AL101961 26.9647 -53.7600 TD 30 -1 14 86
1961306N23301 1961 115 NA NA JENNY 1961-11-03 18:00:00 TS 27.0000 -52.9000 30 hurdat_atl main 1616 1616 O_____________ hurdat_atl AL101961 27.0000 -52.9000 TD 30 -1 16 88
1961306N23301 1961 115 NA NA JENNY 1961-11-03 21:00:00 TS 27.0070 -51.9873 main 1691 1691 P_____________ AL101961 27.0070 -51.9873 TD 30 -1 17 90
1961306N23301 1961 115 NA NA JENNY 1961-11-04 00:00:00 TS 27.0000 -51.0000 30 hurdat_atl main 1776 1776 O_____________ hurdat_atl AL101961 27.0000 -51.0000 TD 30 -1 18 90
1961306N23301 1961 115 NA NA JENNY 1961-11-04 03:00:00 TS 27.0224 -49.9506 main 1863 1863 P_____________ AL101961 27.0224 -49.9506 TD 30 -1 19 90
1961306N23301 1961 115 NA NA JENNY 1961-11-04 06:00:00 TS 27.0000 -48.9000 30 hurdat_atl main 1960 1960 O_____________ hurdat_atl AL101961 27.0000 -48.9000 TD 30 -1 19 94
1961306N23301 1961 115 NA NA JENNY 1961-11-04 09:00:00 TS 26.8877 -47.8672 main 2046 2046 P_____________ AL101961 26.8877 -47.8672 TD 30 -1 17 100
1961306N23301 1961 115 NA NA JENNY 1961-11-04 12:00:00 TS 26.7000 -47.0000 30 1002 hurdat_atl main 2119 2119 O_____________ hurdat_atl AL101961 26.7000 -47.0000 TD 30 1002 -1 14 109
1961306N23301 1961 115 NA NA JENNY 1961-11-04 15:00:00 TS 26.4489 -46.4327 main 2162 2162 P_____________ AL101961 26.4489 -46.4327 TD 30 1001 -1 10 119
1961306N23301 1961 115 NA NA JENNY 1961-11-04 18:00:00 TS 26.2000 -46.0000 30 1001 hurdat_atl main 2192 2192 O_____________ hurdat_atl AL101961 26.2000 -46.0000 TD 30 1001 -1 9 118
1961306N23301 1961 115 NA NA JENNY 1961-11-04 21:00:00 TS 26.0123 -45.5000 main 2232 2232 P_____________ AL101961 26.0123 -45.5000 TD 30 -1 9 108
1961306N23301 1961 115 NA NA JENNY 1961-11-05 00:00:00 TS 25.9000 -45.0000 30 hurdat_atl main 2276 2276 O_____________ hurdat_atl AL101961 25.9000 -45.0000 TD 30 -1 10 101
1961306N23301 1961 115 NA NA JENNY 1961-11-05 03:00:00 TS 25.8326 -44.4624 main 2321 2321 P_____________ AL101961 25.8326 -44.4624 TD 32 -1 9 90
1961306N23301 1961 115 NA NA JENNY 1961-11-05 06:00:00 TS 25.9000 -44.0000 35 hurdat_atl main 2372 2372 O_____________ hurdat_atl AL101961 25.9000 -44.0000 TS 35 0 8 68
1961306N23301 1961 115 NA NA JENNY 1961-11-05 09:00:00 TS 26.1323 -43.6383 main 2417 2395 P_____________ AL101961 26.1323 -43.6383 TS 37 0 8 37
1961306N23301 1961 115 NA NA JENNY 1961-11-05 12:00:00 TS 26.5000 -43.5000 40 hurdat_atl main 2395 2353 O_____________ hurdat_atl AL101961 26.5000 -43.5000 TS 40 0 8 7
1961306N23301 1961 115 NA NA JENNY 1961-11-05 15:00:00 TS 26.9481 -43.5257 main 2353 2284 P_____________ AL101961 26.9481 -43.5257 TS 42 0 10 334
1961306N23301 1961 115 NA NA JENNY 1961-11-05 18:00:00 TS 27.4000 -44.0000 45 988 hurdat_atl main 2284 2223 O_____________ hurdat_atl AL101961 27.4000 -44.0000 TS 45 988 0 16 300
1961306N23301 1961 115 NA NA JENNY 1961-11-05 21:00:00 TS 27.7466 -45.0917 main 2220 2154 P_____________ AL101961 27.7466 -45.0917 TS 47 0 23 285
1961306N23301 1961 115 NA NA JENNY 1961-11-06 00:00:00 TS 28.0000 -46.5000 50 hurdat_atl main 2152 2102 O_____________ hurdat_atl AL101961 28.0000 -46.5000 TS 50 0 25 280
1961306N23301 1961 115 NA NA JENNY 1961-11-06 03:00:00 TS 28.1878 -47.8454 main 2102 2019 P_____________ AL101961 28.1878 -47.8454 TS 52 0 23 277
1961306N23301 1961 115 NA NA JENNY 1961-11-06 06:00:00 TS 28.3000 -49.1000 55 hurdat_atl main 2011 1932 O_____________ hurdat_atl AL101961 28.3000 -49.1000 TS 55 0 20 275
1961306N23301 1961 115 NA NA JENNY 1961-11-06 09:00:00 TS 28.3640 -50.1555 main 1924 1859 P_____________ AL101961 28.3640 -50.1555 TS 60 0 17 273
1961306N23301 1961 115 NA NA JENNY 1961-11-06 12:00:00 TS 28.4000 -51.0000 65 hurdat_atl main 1859 1802 O_____________ hurdat_atl AL101961 28.4000 -51.0000 HU 65 1 14 273
1961306N23301 1961 115 NA NA JENNY 1961-11-06 15:00:00 TS 28.4419 -51.6976 main 1802 1769 P_____________ AL101961 28.4419 -51.6976 HU 67 1 11 275
1961306N23301 1961 115 NA NA JENNY 1961-11-06 18:00:00 TS 28.5000 -52.2000 70 974 hurdat_atl main 1769 1753 O_____________ hurdat_atl AL101961 28.5000 -52.2000 HU 70 974 1 8 281
1961306N23301 1961 115 NA NA JENNY 1961-11-06 21:00:00 TS 28.5846 -52.5601 main 1745 1737 P_____________ AL101961 28.5846 -52.5601 HU 70 1 6 291
1961306N23301 1961 115 NA NA JENNY 1961-11-07 00:00:00 TS 28.7000 -52.8000 70 hurdat_atl main 1737 1721 O_____________ hurdat_atl AL101961 28.7000 -52.8000 HU 70 1 5 300
1961306N23301 1961 115 NA NA JENNY 1961-11-07 03:00:00 TS 28.8425 -53.0673 main 1721 1721 P_____________ AL101961 28.8425 -53.0673 HU 67 1 5 311
1961306N23301 1961 115 NA NA JENNY 1961-11-07 06:00:00 TS 29.0000 -53.2000 65 hurdat_atl main 1728 1728 O_____________ hurdat_atl AL101961 29.0000 -53.2000 HU 65 1 3 351
1961306N23301 1961 115 NA NA JENNY 1961-11-07 09:00:00 TS 29.1424 -53.1250 main 1743 1743 P_____________ AL101961 29.1424 -53.1250 HU 62 0 4 41
1961306N23301 1961 115 NA NA JENNY 1961-11-07 12:00:00 TS 29.3000 -52.9000 60 hurdat_atl main 1772 1772 O_____________ hurdat_atl AL101961 29.3000 -52.9000 TS 60 0 5 53
1961306N23301 1961 115 NA NA JENNY 1961-11-07 15:00:00 TS 29.4701 -52.6223 main 1808 1808 P_____________ AL101961 29.4701 -52.6223 TS 60 0 7 53
1961306N23301 1961 115 NA NA JENNY 1961-11-07 18:00:00 TS 29.7000 -52.3000 60 985 hurdat_atl main 1845 1845 O_____________ hurdat_atl AL101961 29.7000 -52.3000 TS 60 985 0 8 44
1961306N23301 1961 115 NA NA JENNY 1961-11-07 21:00:00 TS 30.0274 -52.0074 main 1851 1808 P_____________ AL101961 30.0274 -52.0074 TS 57 0 9 37
1961306N23301 1961 115 NA NA JENNY 1961-11-08 00:00:00 TS 30.4000 -51.7000 55 hurdat_atl main 1808 1776 O_____________ hurdat_atl AL101961 30.4000 -51.7000 TS 55 0 9 37
1961306N23301 1961 115 NA NA JENNY 1961-11-08 03:00:00 TS 30.7499 -51.3647 main 1776 1735 P_____________ AL101961 30.7499 -51.3647 TS 52 0 9 41
1961306N23301 1961 115 NA NA JENNY 1961-11-08 06:00:00 TS 31.1000 -51.0000 50 hurdat_atl main 1735 1705 O_____________ hurdat_atl AL101961 31.1000 -51.0000 TS 50 0 10 42
1961306N23301 1961 115 NA NA JENNY 1961-11-08 09:00:00 TS 31.4573 -50.6222 main 1695 1665 P_____________ AL101961 31.4573 -50.6222 TS 50 0 10 44
1961306N23301 1961 115 NA NA JENNY 1961-11-08 12:00:00 TS 31.8000 -50.2000 50 hurdat_atl main 1667 1639 O_____________ hurdat_atl AL101961 31.8000 -50.2000 TS 50 0 10 50
1961306N23301 1961 115 NA NA JENNY 1961-11-08 15:00:00 TS 32.1076 -49.6999 main 1641 1614 P_____________ AL101961 32.1076 -49.6999 TS 47 0 10 55
1961306N23301 1961 115 NA NA JENNY 1961-11-08 18:00:00 TS 32.4000 -49.2000 45 hurdat_atl main 1616 1591 O_____________ hurdat_atl AL101961 32.4000 -49.2000 TS 45 0 10 52
1961306N23301 1961 115 NA NA JENNY 1961-11-08 21:00:00 TS 32.6996 -48.7920 main 1591 1567 P_____________ AL101961 32.6996 -48.7920 TS 42 0 9 48
1961306N23301 1961 115 NA NA JENNY 1961-11-09 00:00:00 TS 33.0000 -48.4000 40 987 hurdat_atl main 1567 1543 O_____________ hurdat_atl AL101961 33.0000 -48.4000 TS 40 987 0 9 49
1961306N23301 1961 115 NA NA JENNY 1961-11-09 03:00:00 TS 33.2998 -47.9647 main 1543 1521 P_____________ AL101961 33.2998 -47.9647 TS 40 0 10 51
1961306N23301 1961 115 NA NA JENNY 1961-11-09 06:00:00 TS 33.6000 -47.5000 40 hurdat_atl main 1524 1506 O_____________ hurdat_atl AL101961 33.6000 -47.5000 TS 40 0 10 55
1961306N23301 1961 115 NA NA JENNY 1961-11-09 09:00:00 TS 33.8701 -46.9919 main 1506 1486 P_____________ AL101961 33.8701 -46.9919 TS 37 0 10 54
1961306N23301 1961 115 NA NA JENNY 1961-11-09 12:00:00 TS 34.2000 -46.5000 35 hurdat_atl main 1489 1461 O_____________ hurdat_atl AL101961 34.2000 -46.5000 TS 35 0 11 44
1961306N23301 1961 115 NA NA JENNY 1961-11-09 15:00:00 TS 34.6473 -46.0771 main 1461 1413 P_____________ AL101961 34.6473 -46.0771 TS 37 0 12 33
1961306N23301 1961 115 NA NA JENNY 1961-11-09 18:00:00 TS 35.2000 -45.7000 40 hurdat_atl main 1413 1364 O_____________ hurdat_atl AL101961 35.2000 -45.7000 TS 40 0 13 28
1961306N23301 1961 115 NA NA JENNY 1961-11-09 21:00:00 TS 35.7974 -45.3417 main 1368 1311 P_____________ AL101961 35.7974 -45.3417 TS 42 0 14 24
1961306N23301 1961 115 NA NA JENNY 1961-11-10 00:00:00 TS 36.5000 -45.0000 45 hurdat_atl main 1311 1247 O_____________ hurdat_atl AL101961 36.5000 -45.0000 TS 45 0 16 20
1961306N23301 1961 115 NA NA JENNY 1961-11-10 03:00:00 TS 37.3124 -44.6567 main 1247 1182 P_____________ AL101961 37.3124 -44.6567 TS 47 0 18 18
1961306N23301 1961 115 NA NA JENNY 1961-11-10 06:00:00 TS 38.2000 -44.3000 50 hurdat_atl main 1182 1132 O_____________ hurdat_atl AL101961 38.2000 -44.3000 TS 50 0 18 20
1961306N23301 1961 115 NA NA JENNY 1961-11-10 09:00:00 TS 39.0028 -43.8841 main 1132 1079 P_____________ AL101961 39.0028 -43.8841 TS 52 0 19 19
1961306N23301 1961 115 NA NA JENNY 1961-11-10 12:00:00 TS 40.0000 -43.5000 55 hurdat_atl main 1070 983 O_____________ hurdat_atl AL101961 40.0000 -43.5000 TS 55 0 24 11
1961306N23301 1961 115 NA NA JENNY 1961-11-10 15:00:00 TS 41.3718 -43.2946 main 976 895 P_____________ AL101961 41.3718 -43.2946 TS 55 0 30 7
1961306N23301 1961 115 NA NA JENNY 1961-11-10 18:00:00 TS 43.0000 -43.0000 55 hurdat_atl main 890 839 O_____________ hurdat_atl AL101961 43.0000 -43.0000 TS 55 0 35 11
1961306N23301 1961 115 NA NA JENNY 1961-11-10 21:00:00 TS 44.7864 -42.4001 main 837 829 P_____________ AL101961 44.7864 -42.4001 TS 55 0 37 17
1961306N23301 1961 115 NA NA JENNY 1961-11-11 00:00:00 ET 46.5000 -41.5000 55 hurdat_atl main 844 844 O_____________ hurdat_atl AL101961 46.5000 -41.5000 EX 55 -4 34 25
1961306N23301 1961 115 NA NA JENNY 1961-11-11 03:00:00 ET 47.8659 -40.3341 main 916 916 P_____________ AL101961 47.8659 -40.3341 EX 50 -4 30 34
1961306N23301 1961 115 NA NA JENNY 1961-11-11 06:00:00 ET 49.0000 -39.0000 45 hurdat_atl main 1014 O_____________ hurdat_atl AL101961 49.0000 -39.0000 EX 45 -4 29 38

About IBTrACS Database

This database is a web-friendly format of International Best Track Archive for Climate Stewardship (IBTrACS), a global best track data archive curated by NOAA dating back to 1842.

Updated: 2021-12-08